Time;durP1;ratioP1;P1;durP2;ratioP2;P2;SDS_P1;SDS_P2;PMS_P1;PMS_P2;Temp;Humidity;BMP_temperature;BMP_pressure;BME280_temperature;BME280_humidity;BME280_pressure;Samples;Min_cycle;Max_cycle;Signal;HPM_P1;HPM_P2
2022/09/29 00:01:06;;;;;;;4.57;2.10;;;;;;;15.72;65.95;93945.59;5050742;28;20505;-76
2022/09/29 00:03:31;;;;;;;5.13;2.42;;;;;;;15.70;66.19;93958.03;5056551;28;20413;-75
2022/09/29 00:05:57;;;;;;;4.32;2.20;;;;;;;15.70;65.04;93960.66;5053020;28;20098;-75
2022/09/29 00:08:24;;;;;;;6.47;2.20;;;;;;;15.67;65.26;93953.13;5073373;28;20150;-75
2022/09/29 00:10:50;;;;;;;6.70;2.60;;;;;;;15.60;65.88;93950.38;5053668;28;20136;-75
2022/09/29 00:13:15;;;;;;;4.30;2.42;;;;;;;15.35;66.38;93934.94;5035827;28;20539;-75
2022/09/29 00:15:41;;;;;;;4.65;2.53;;;;;;;15.44;66.71;93956.59;5069883;28;20060;-75
2022/09/29 00:18:08;;;;;;;4.13;2.20;;;;;;;15.38;67.05;93954.72;5048600;28;20249;-76
2022/09/29 00:20:34;;;;;;;4.32;2.45;;;;;;;15.38;67.53;93959.94;5036969;28;20044;-75
2022/09/29 00:22:59;;;;;;;6.00;2.22;;;;;;;15.19;67.12;93917.56;5053428;28;20024;-76
2022/09/29 00:25:24;;;;;;;3.95;2.40;;;;;;;15.36;67.33;93940.97;5069679;28;20028;-75
2022/09/29 00:27:50;;;;;;;8.35;2.90;;;;;;;15.25;66.41;93939.59;5049817;28;20410;-76
2022/09/29 00:30:16;;;;;;;4.65;2.83;;;;;;;15.27;67.72;93947.28;5051698;28;20059;-75
2022/09/29 00:32:41;;;;;;;6.43;2.30;;;;;;;15.19;64.65;93941.09;5052707;28;20455;-75
2022/09/29 00:35:08;;;;;;;4.78;2.00;;;;;;;15.25;64.13;93944.81;5037017;28;20025;-75
2022/09/29 00:37:34;;;;;;;5.07;2.08;;;;;;;15.24;63.93;93937.97;5061029;28;20455;-75
2022/09/29 00:40:00;;;;;;;3.78;2.22;;;;;;;15.18;64.23;93938.66;5068051;28;20028;-75
2022/09/29 00:42:26;;;;;;;4.93;2.38;;;;;;;15.15;65.03;93939.81;5038464;28;20029;-76
2022/09/29 00:45:05;;;;;;;3.88;1.98;;;;;;;15.24;64.21;93926.69;5050621;28;20151;-76
2022/09/29 00:47:31;;;;;;;6.70;2.17;;;;;;;15.24;64.51;93922.28;5051483;28;20128;-75
2022/09/29 00:49:58;;;;;;;5.80;2.20;;;;;;;15.10;65.34;93926.47;5046632;28;20124;-75
2022/09/29 00:52:37;;;;;;;3.58;2.10;;;;;;;15.11;66.45;93938.56;5052788;28;20025;-75
2022/09/29 00:55:20;;;;;;;4.88;2.30;;;;;;;15.15;67.26;93934.59;5034628;28;20028;-75
2022/09/29 00:57:53;;;;;;;5.70;2.50;;;;;;;14.98;66.50;93931.28;5047317;28;20041;-75
2022/09/29 01:00:18;;;;;;;3.10;2.20;;;;;;;15.02;67.44;93939.63;5062389;28;20034;-75
2022/09/29 01:02:53;;;;;;;4.03;2.30;;;;;;;14.96;64.88;93916.78;5058018;28;20024;-75
2022/09/29 01:05:24;;;;;;;3.67;2.38;;;;;;;15.07;65.13;93929.44;5053639;28;20040;-75
2022/09/29 01:07:50;;;;;;;4.78;2.75;;;;;;;15.06;66.71;93933.03;5054534;28;20532;-75
2022/09/29 01:10:16;;;;;;;7.30;2.47;;;;;;;14.97;66.23;93942.75;5046377;28;20033;-76
2022/09/29 01:12:42;;;;;;;6.78;2.50;;;;;;;15.04;67.35;93942.84;5033632;28;20033;-75
2022/09/29 01:15:08;;;;;;;3.60;2.10;;;;;;;14.93;66.29;93927.56;5046505;28;20028;-76
2022/09/29 01:17:33;;;;;;;3.83;2.50;;;;;;;14.92;66.35;93924.16;5065797;28;20541;-76
2022/09/29 01:20:17;;;;;;;3.08;2.22;;;;;;;14.87;66.31;93930.91;5036707;28;20124;-76
2022/09/29 01:22:52;;;;;;;9.25;2.65;;;;;;;14.86;67.08;93921.44;5043736;28;20036;-76
2022/09/29 01:25:41;;;;;;;4.40;2.33;;;;;;;14.78;66.71;93930.13;5051767;28;20104;-75
2022/09/29 01:28:12;;;;;;;5.15;2.35;;;;;;;14.71;67.05;93922.19;5033928;28;20044;-75
2022/09/29 01:31:05;;;;;;;3.20;2.38;;;;;;;14.65;67.65;93924.66;5051701;28;20056;-76
2022/09/29 01:33:38;;;;;;;5.72;2.97;;;;;;;14.54;67.66;93931.09;5052812;28;20174;-76
2022/09/29 01:36:55;;;;;;;8.13;2.78;;;;;;;14.58;68.06;93932.41;5018440;28;20032;-75
2022/09/29 01:39:30;;;;;;;5.55;2.50;;;;;;;14.42;67.44;93927.22;5005390;28;20041;-75
2022/09/29 01:42:11;;;;;;;5.97;2.60;;;;;;;14.35;67.93;93931.50;5054125;28;20024;-75
2022/09/29 01:44:44;;;;;;;3.38;2.20;;;;;;;14.31;68.93;93939.69;5061114;28;20025;-76
2022/09/29 01:47:19;;;;;;;4.57;2.47;;;;;;;14.21;68.64;93941.72;5043627;28;20040;-75
2022/09/29 01:49:47;;;;;;;5.40;2.40;;;;;;;14.17;69.00;93958.69;5052228;28;20025;-75
2022/09/29 01:52:18;;;;;;;2.75;2.10;;;;;;;14.12;69.79;93950.53;5050304;28;20173;-76
2022/09/29 01:54:47;;;;;;;4.80;2.30;;;;;;;14.16;68.29;93964.91;5070090;28;20031;-75
2022/09/29 01:57:24;;;;;;;4.15;2.28;;;;;;;14.09;68.85;93964.75;5056875;28;20025;-75
2022/09/29 01:59:58;;;;;;;3.30;2.45;;;;;;;14.13;69.79;93969.66;5069671;28;20044;-75
2022/09/29 02:02:31;;;;;;;5.93;2.50;;;;;;;14.09;69.07;93953.50;5071235;28;20161;-75
2022/09/29 02:04:58;;;;;;;5.00;2.53;;;;;;;13.95;69.05;93949.78;5018307;28;20029;-75
2022/09/29 02:07:30;;;;;;;3.72;2.20;;;;;;;13.93;69.66;93958.78;5027605;28;20071;-75
2022/09/29 02:10:01;;;;;;;4.85;2.42;;;;;;;13.94;70.45;93949.97;5050138;28;20021;-75
2022/09/29 02:12:27;;;;;;;6.60;2.42;;;;;;;13.92;70.32;93954.53;5050235;28;20457;-75
2022/09/29 02:14:53;;;;;;;4.05;2.35;;;;;;;13.84;70.39;93956.19;5043044;28;20064;-75
2022/09/29 02:17:20;;;;;;;5.32;2.50;;;;;;;13.83;70.67;93972.03;5034378;28;20056;-76
2022/09/29 02:19:47;;;;;;;4.97;2.28;;;;;;;13.84;70.37;93968.41;5044625;28;20051;-75
2022/09/29 02:22:13;;;;;;;3.75;2.10;;;;;;;13.71;70.44;93971.56;5051519;28;20044;-75
2022/09/29 02:24:38;;;;;;;5.70;2.00;;;;;;;13.60;70.86;93971.91;5070928;28;20025;-75
2022/09/29 02:27:04;;;;;;;3.95;2.20;;;;;;;13.62;71.01;93973.38;5068370;28;20086;-75
2022/09/29 02:29:29;;;;;;;6.50;2.40;;;;;;;13.51;71.58;93986.78;5052391;28;20517;-75
2022/09/29 02:31:56;;;;;;;3.58;2.33;;;;;;;13.44;72.10;93969.31;5039207;28;20040;-76
2022/09/29 02:34:21;;;;;;;6.10;2.53;;;;;;;13.36;71.90;93968.34;5041917;28;20040;-76
2022/09/29 02:37:19;;;;;;;4.93;2.58;;;;;;;13.37;72.12;93985.66;5044925;28;20033;-75
2022/09/29 02:39:55;;;;;;;7.88;3.15;;;;;;;13.37;72.30;93977.81;5043841;28;20029;-76
2022/09/29 02:42:43;;;;;;;4.60;2.95;;;;;;;13.39;71.95;93982.84;5048044;28;20036;-75
2022/09/29 02:45:33;;;;;;;4.38;2.35;;;;;;;13.28;72.19;93970.94;5068973;28;20034;-75
2022/09/29 02:48:22;;;;;;;2.47;2.17;;;;;;;13.29;72.13;93976.97;5070401;28;20037;-75
2022/09/29 02:50:48;;;;;;;6.38;3.00;;;;;;;13.29;72.65;93977.81;5063859;28;20033;-75
2022/09/29 02:53:31;;;;;;;4.45;2.72;;;;;;;13.26;71.85;93975.53;5050413;28;20032;-75
2022/09/29 02:56:44;;;;;;;5.15;2.80;;;;;;;13.31;72.03;93983.66;5049174;28;20079;-75
2022/09/29 02:59:19;;;;;;;4.03;2.70;;;;;;;13.29;72.37;93996.06;5027939;28;20128;-75
2022/09/29 03:01:54;;;;;;;5.70;3.00;;;;;;;13.35;71.68;94003.25;5039764;28;20088;-75
2022/09/29 03:04:21;;;;;;;7.05;3.10;;;;;;;13.43;71.01;93998.97;5059957;28;20045;-76
2022/09/29 03:06:47;;;;;;;4.28;2.80;;;;;;;13.44;70.42;93975.34;5063122;28;20040;-75
2022/09/29 03:09:12;;;;;;;3.53;2.60;;;;;;;13.51;70.39;93980.72;5045892;28;20410;-76
2022/09/29 03:11:38;;;;;;;5.30;2.88;;;;;;;13.54;70.41;93976.00;5035136;28;20033;-75
2022/09/29 03:14:05;;;;;;;3.67;2.63;;;;;;;13.59;70.33;93972.88;5032431;28;20033;-75
2022/09/29 03:16:31;;;;;;;4.15;2.80;;;;;;;13.60;70.38;93977.13;5053704;28;20075;-76
2022/09/29 03:18:56;;;;;;;3.85;2.80;;;;;;;13.66;70.75;93962.63;5048945;28;20033;-75
2022/09/29 03:21:22;;;;;;;5.93;2.88;;;;;;;13.72;69.65;93947.09;5041265;28;20041;-75
2022/09/29 03:23:47;;;;;;;4.20;2.42;;;;;;;13.76;69.60;93940.56;5063603;28;20510;-75
2022/09/29 03:26:13;;;;;;;4.70;2.50;;;;;;;13.74;69.69;93947.75;5068539;28;20032;-75
2022/09/29 03:28:39;;;;;;;4.13;2.65;;;;;;;13.63;70.37;93948.09;5052053;28;20041;-76
2022/09/29 03:31:05;;;;;;;5.95;3.50;;;;;;;13.63;70.47;93948.09;5065522;28;20029;-75
2022/09/29 03:33:31;;;;;;;4.65;2.92;;;;;;;13.50;69.97;93945.19;5016071;28;20033;-75
2022/09/29 03:35:56;;;;;;;4.72;2.95;;;;;;;13.54;69.74;93934.25;5049959;28;20040;-75
2022/09/29 03:38:22;;;;;;;6.78;2.33;;;;;;;13.44;70.32;93948.47;5067174;28;20029;-75
2022/09/29 03:40:47;;;;;;;5.97;4.57;;;;;;;13.53;69.71;93952.69;5053919;28;20426;-75
2022/09/29 03:43:13;;;;;;;4.95;3.35;;;;;;;13.66;69.73;93967.84;5070162;28;20017;-75
2022/09/29 03:45:47;;;;;;;3.83;2.88;;;;;;;13.67;69.62;93965.03;5067054;28;20037;-75
2022/09/29 03:48:12;;;;;;;5.68;2.88;;;;;;;13.65;69.55;93967.03;5052589;28;20399;-75
2022/09/29 03:50:38;;;;;;;3.88;2.53;;;;;;;13.67;69.91;93953.78;5057966;28;20032;-75
2022/09/29 03:53:03;;;;;;;5.10;2.85;;;;;;;13.61;70.46;93960.50;5051146;28;20418;-75
2022/09/29 03:55:29;;;;;;;5.45;2.63;;;;;;;13.60;70.93;93959.69;5053287;28;20036;-75
2022/09/29 03:57:54;;;;;;;6.63;2.38;;;;;;;13.57;71.61;93951.38;5054696;28;20033;-75
2022/09/29 04:00:20;;;;;;;3.42;2.33;;;;;;;13.54;71.48;93939.47;5056165;28;20409;-75
2022/09/29 04:02:45;;;;;;;3.50;2.40;;;;;;;13.59;71.36;93931.94;5055166;28;20032;-75
2022/09/29 04:05:11;;;;;;;4.13;2.35;;;;;;;13.57;71.23;93944.34;5053714;28;20032;-75
2022/09/29 04:07:36;;;;;;;7.57;2.90;;;;;;;13.46;71.40;93944.72;5051928;28;20388;-75
2022/09/29 04:10:02;;;;;;;4.07;3.08;;;;;;;13.41;70.83;93986.13;5060302;28;20098;-75
2022/09/29 04:12:28;;;;;;;5.75;3.15;;;;;;;13.44;70.70;93983.19;5051352;28;20033;-75
2022/09/29 04:14:53;;;;;;;4.82;3.30;;;;;;;13.31;70.85;93960.19;5046564;28;20021;-75
2022/09/29 04:17:19;;;;;;;4.22;3.10;;;;;;;13.43;70.83;93983.34;5061876;28;20442;-75
2022/09/29 04:19:44;;;;;;;4.07;3.03;;;;;;;13.33;71.23;93994.75;5051578;28;20032;-75
2022/09/29 04:22:10;;;;;;;3.92;3.10;;;;;;;13.32;71.19;93994.94;5052656;28;20037;-75
2022/09/29 04:24:37;;;;;;;3.90;3.10;;;;;;;13.30;71.07;93991.66;5035195;28;20037;-76
2022/09/29 04:27:02;;;;;;;4.82;3.00;;;;;;;13.17;71.28;93985.09;5064235;28;20037;-75
2022/09/29 04:29:28;;;;;;;6.20;3.78;;;;;;;13.19;71.49;93993.59;5059975;28;20460;-75
2022/09/29 04:31:53;;;;;;;7.70;4.15;;;;;;;13.19;71.74;93984.94;5072918;28;20102;-75
2022/09/29 04:34:19;;;;;;;6.30;4.13;;;;;;;13.14;72.00;93989.84;5067669;28;20043;-75
2022/09/29 04:36:45;;;;;;;7.07;4.63;;;;;;;13.10;72.22;93998.97;5051449;28;20111;-75
2022/09/29 04:39:10;;;;;;;10.40;8.40;;;;;;;13.08;72.34;93990.50;5020055;28;20529;-75
2022/09/29 04:41:38;;;;;;;7.57;4.78;;;;;;;13.05;71.96;94002.06;5060814;28;20454;-75
2022/09/29 04:44:05;;;;;;;10.00;4.55;;;;;;;12.92;72.15;93994.69;5055314;28;20021;-76
2022/09/29 04:46:30;;;;;;;8.35;4.50;;;;;;;12.88;72.40;93984.78;5057227;28;20029;-76
2022/09/29 04:48:55;;;;;;;7.97;4.13;;;;;;;12.81;72.79;93989.78;5051282;28;20498;-75
2022/09/29 04:51:21;;;;;;;9.02;5.30;;;;;;;12.79;73.17;93990.94;5052224;28;20411;-76
2022/09/29 04:53:46;;;;;;;7.65;4.80;;;;;;;12.72;73.55;93990.75;5064816;28;20024;-76
2022/09/29 04:56:12;;;;;;;9.18;4.30;;;;;;;12.72;73.73;93985.56;5030923;28;20060;-74
2022/09/29 04:58:37;;;;;;;6.22;4.30;;;;;;;12.73;73.75;93995.81;5063599;28;20036;-77
2022/09/29 05:01:11;;;;;;;8.05;4.20;;;;;;;12.72;73.81;93990.75;5051043;28;20487;-76
2022/09/29 05:03:37;;;;;;;6.68;4.13;;;;;;;12.69;73.89;93976.25;5054427;28;20109;-74
2022/09/29 05:06:02;;;;;;;7.20;4.00;;;;;;;12.72;74.15;93973.34;5046472;28;20525;-73
2022/09/29 05:08:28;;;;;;;10.30;4.80;;;;;;;12.77;74.40;93982.47;5070856;28;20039;-74
2022/09/29 05:10:53;;;;;;;9.23;4.88;;;;;;;12.82;74.47;93988.03;5055456;28;20028;-77
2022/09/29 05:13:18;;;;;;;6.53;5.20;;;;;;;12.89;73.88;93979.38;5052944;28;20035;-76
2022/09/29 05:15:44;;;;;;;12.15;4.93;;;;;;;12.83;73.86;93979.22;5050295;28;20037;-76
2022/09/29 05:18:09;;;;;;;4.60;3.67;;;;;;;12.67;74.67;93965.19;5034292;28;20193;-77
2022/09/29 05:20:35;;;;;;;4.85;3.40;;;;;;;12.76;74.92;93966.03;5039740;28;20078;-78
2022/09/29 05:23:00;;;;;;;6.20;3.90;;;;;;;12.79;74.23;93962.25;5036080;28;20036;-78
2022/09/29 05:25:26;;;;;;;9.38;4.35;;;;;;;12.83;74.55;93977.44;5042791;28;20070;-75
2022/09/29 05:27:52;;;;;;;9.55;6.82;;;;;;;12.82;74.50;93975.81;5036787;28;20090;-77
2022/09/29 05:30:17;;;;;;;11.75;9.52;;;;;;;12.89;74.27;93973.34;5052607;28;20041;-76
2022/09/29 05:32:43;;;;;;;10.77;8.13;;;;;;;13.05;74.54;93978.59;5071175;28;20044;-76
2022/09/29 05:35:09;;;;;;;10.18;6.72;;;;;;;13.31;73.93;93978.44;5031934;28;20020;-76
2022/09/29 05:37:34;;;;;;;5.32;4.35;;;;;;;13.61;73.52;93963.09;5034713;28;20032;-76
2022/09/29 05:40:00;;;;;;;7.25;6.43;;;;;;;13.92;71.54;93957.16;5034508;28;20079;-76
2022/09/29 05:42:26;;;;;;;8.75;6.80;;;;;;;13.97;70.45;93941.81;5017291;28;20039;-76
2022/09/29 05:44:52;;;;;;;7.63;6.10;;;;;;;14.04;71.00;93955.78;5034099;28;20029;-76
2022/09/29 05:47:17;;;;;;;6.15;5.10;;;;;;;14.23;70.96;93962.41;5033806;28;20028;-76
2022/09/29 05:49:43;;;;;;;6.13;3.42;;;;;;;14.41;70.52;93952.56;5050220;28;20040;-76
2022/09/29 05:52:08;;;;;;;5.10;2.08;;;;;;;14.69;67.59;93957.34;5033727;28;20032;-76
2022/09/29 05:54:33;;;;;;;5.45;2.92;;;;;;;15.01;68.04;93948.44;5063067;28;20025;-76
2022/09/29 05:56:59;;;;;;;3.97;1.98;;;;;;;15.43;64.00;93954.97;5033134;28;20045;-76
2022/09/29 05:59:24;;;;;;;3.42;2.20;;;;;;;15.96;63.00;93961.00;5033589;28;20033;-76
2022/09/29 06:01:50;;;;;;;3.95;2.50;;;;;;;16.51;60.39;93985.09;5049557;28;20108;-76
2022/09/29 06:04:16;;;;;;;7.63;4.68;;;;;;;17.23;60.82;94005.31;5049142;28;20087;-76
2022/09/29 06:06:41;;;;;;;6.03;3.00;;;;;;;18.11;57.74;94003.22;5033415;28;20055;-76
2022/09/29 06:09:07;;;;;;;4.55;2.40;;;;;;;19.03;53.82;93996.78;5049075;28;20064;-76
2022/09/29 06:11:32;;;;;;;5.40;2.10;;;;;;;19.95;51.70;93989.19;5049693;28;20029;-76
2022/09/29 06:13:58;;;;;;;4.15;2.22;;;;;;;20.49;49.79;93973.03;5022554;28;20036;-76
2022/09/29 06:16:25;;;;;;;4.55;2.00;;;;;;;20.69;47.90;93972.97;5025429;28;20060;-76
2022/09/29 06:18:50;;;;;;;4.05;1.70;;;;;;;20.77;48.99;93998.31;5049746;28;20398;-76
2022/09/29 06:21:18;;;;;;;4.13;1.90;;;;;;;21.31;47.76;93997.06;5032998;28;20037;-76
2022/09/29 06:23:43;;;;;;;8.82;2.00;;;;;;;21.58;47.61;94007.47;5016742;28;20428;-76
2022/09/29 06:26:10;;;;;;;3.67;1.88;;;;;;;22.20;45.97;94007.59;5033102;28;20041;-76
2022/09/29 06:28:36;;;;;;;4.35;1.92;;;;;;;22.26;45.92;93999.63;5049620;28;20055;-76
2022/09/29 06:31:12;;;;;;;7.63;1.98;;;;;;;23.02;42.97;93999.41;5033047;28;20047;-76
2022/09/29 06:33:38;;;;;;;4.68;1.90;;;;;;;23.31;40.69;93989.84;5032899;28;20025;-77
2022/09/29 06:39:21;;;;;;;6.60;1.70;;;;;;;23.82;43.06;94005.22;5049911;28;20082;-77
2022/09/29 06:41:55;;;;;;;5.15;1.73;;;;;;;23.87;42.98;94004.53;5049547;28;20029;-77
2022/09/29 06:44:23;;;;;;;2.95;1.75;;;;;;;23.52;44.33;93999.13;5052712;28;20051;-77
2022/09/29 06:46:49;;;;;;;5.03;1.80;;;;;;;23.15;45.01;94001.88;5040780;28;20597;-77
2022/09/29 06:49:15;;;;;;;5.65;1.75;;;;;;;23.07;44.41;94005.66;5036182;28;20029;-77
2022/09/29 06:51:42;;;;;;;4.50;1.80;;;;;;;22.86;43.95;94000.78;5035347;28;20056;-76
2022/09/29 06:54:10;;;;;;;5.18;2.47;;;;;;;22.55;45.58;94002.56;5050447;28;20024;-76
2022/09/29 06:56:36;;;;;;;4.00;1.92;;;;;;;22.32;47.36;94018.28;5035924;28;20036;-75
2022/09/29 06:59:01;;;;;;;5.43;2.08;;;;;;;22.22;46.56;94014.28;5046080;28;20029;-81
2022/09/29 07:01:27;;;;;;;5.53;2.20;;;;;;;22.04;45.61;94011.59;5058717;28;20403;-76
2022/09/29 07:03:52;;;;;;;6.18;2.22;;;;;;;22.02;44.60;94011.78;5053560;28;20430;-76
2022/09/29 07:06:18;;;;;;;6.88;2.53;;;;;;;21.92;44.53;94013.31;5057471;28;20688;-77
2022/09/29 07:08:43;;;;;;;7.03;2.17;;;;;;;21.79;44.88;94017.69;5049115;28;20053;-76
2022/09/29 07:11:09;;;;;;;4.13;2.30;;;;;;;21.91;45.65;94038.13;5046713;28;20037;-76
2022/09/29 07:13:34;;;;;;;4.22;2.20;;;;;;;21.82;46.00;94041.03;5063705;28;20601;-76
2022/09/29 07:16:05;;;;;;;6.55;2.40;;;;;;;21.80;46.47;94044.91;5055952;28;20029;-76
2022/09/29 07:18:33;;;;;;;5.97;2.70;;;;;;;21.75;45.82;94045.56;5055205;28;20086;-76
2022/09/29 07:20:59;;;;;;;10.73;2.80;;;;;;;21.68;46.21;94034.22;5071063;28;20123;-77
2022/09/29 07:23:25;;;;;;;7.93;3.70;;;;;;;21.64;46.99;94025.91;5074116;28;20108;-76
2022/09/29 07:25:51;;;;;;;6.85;2.90;;;;;;;21.57;47.37;94025.16;5039773;28;20448;-76
2022/09/29 07:28:16;;;;;;;5.45;2.47;;;;;;;21.49;46.16;94027.25;5056007;28;20029;-77
2022/09/29 07:30:42;;;;;;;7.10;2.65;;;;;;;21.30;46.29;94026.31;5073730;28;20449;-77
2022/09/29 07:33:07;;;;;;;10.32;4.13;;;;;;;21.15;46.93;94024.75;5072768;28;20025;-77
2022/09/29 07:35:33;;;;;;;7.90;2.75;;;;;;;21.18;47.02;94021.69;5072710;28;20025;-76
2022/09/29 07:37:58;;;;;;;7.53;2.65;;;;;;;21.03;47.38;94017.72;5072648;28;20099;-76
2022/09/29 07:40:24;;;;;;;6.38;2.60;;;;;;;20.96;47.24;94018.56;5055888;28;20479;-77
2022/09/29 07:42:49;;;;;;;9.02;2.50;;;;;;;20.95;47.55;94018.78;5055925;28;20490;-76
2022/09/29 07:45:18;;;;;;;5.18;2.30;;;;;;;20.94;47.32;94017.13;5072559;28;20086;-77
2022/09/29 07:47:44;;;;;;;5.25;2.55;;;;;;;20.85;47.10;94021.84;5055738;28;20032;-77
2022/09/29 07:50:09;;;;;;;9.52;3.03;;;;;;;20.87;47.35;94022.47;5039208;28;20037;-77
2022/09/29 07:52:34;;;;;;;7.07;2.95;;;;;;;20.76;48.29;94023.13;5072514;28;20040;-77
2022/09/29 07:55:01;;;;;;;5.18;2.30;;;;;;;20.73;48.01;94021.69;5072376;28;20036;-77
2022/09/29 07:57:26;;;;;;;5.00;2.30;;;;;;;20.83;48.54;94029.16;5055670;28;20486;-76
2022/09/29 07:59:53;;;;;;;3.85;2.20;;;;;;;21.03;48.21;94033.53;5072199;28;20028;-76
2022/09/29 08:02:19;;;;;;;3.63;2.30;;;;;;;21.11;47.86;94041.22;5072423;28;20067;-76
2022/09/29 08:04:45;;;;;;;8.43;2.33;;;;;;;21.19;47.33;94044.44;5073382;28;20506;-77
2022/09/29 08:07:10;;;;;;;6.95;2.05;;;;;;;21.23;48.20;94026.34;5055415;28;20028;-76
2022/09/29 08:09:36;;;;;;;5.85;2.03;;;;;;;21.50;47.38;94047.34;5073414;28;20029;-77
2022/09/29 08:12:01;;;;;;;5.72;2.28;;;;;;;21.55;47.00;94035.13;5073644;28;20127;-77
2022/09/29 08:14:27;;;;;;;4.90;2.40;;;;;;;21.66;46.69;94041.56;5072134;28;20032;-77
2022/09/29 08:16:52;;;;;;;4.95;2.22;;;;;;;21.71;46.40;94039.09;5055066;28;20107;-76
2022/09/29 08:19:18;;;;;;;4.35;2.00;;;;;;;21.82;45.71;94051.63;5055525;28;20028;-77
2022/09/29 08:21:45;;;;;;;6.93;2.40;;;;;;;21.85;45.98;94055.66;5072119;28;20392;-77
2022/09/29 08:24:11;;;;;;;5.05;2.60;;;;;;;21.93;46.29;94049.31;5055563;28;20490;-77
2022/09/29 08:26:39;;;;;;;5.10;2.35;;;;;;;21.86;46.23;94042.22;5054460;28;20028;-77
2022/09/29 08:29:04;;;;;;;5.28;2.40;;;;;;;21.86;46.48;94034.28;5071923;28;20544;-77
2022/09/29 08:31:29;;;;;;;6.03;2.40;;;;;;;22.02;45.66;94045.38;5071884;28;20048;-77
2022/09/29 08:33:57;;;;;;;4.32;2.25;;;;;;;21.98;45.40;94038.88;5038558;28;20055;-77
2022/09/29 08:36:22;;;;;;;9.35;2.85;;;;;;;22.02;45.39;94048.00;5038765;28;20036;-77
2022/09/29 08:38:53;;;;;;;5.47;2.05;;;;;;;22.11;45.88;94053.84;5055077;28;20399;-77
2022/09/29 08:42:00;;;;;;;6.40;2.65;;;;;;;22.03;46.88;94057.53;5055412;28;20064;-78
2022/09/29 08:44:45;;;;;;;8.27;3.10;;;;;;;22.08;46.51;94055.06;5070707;28;20037;-77
2022/09/29 08:47:17;;;;;;;5.65;2.35;;;;;;;22.15;45.92;94066.41;5071716;28;20035;-77
2022/09/29 08:49:50;;;;;;;7.15;2.30;;;;;;;22.20;46.31;94056.00;5071575;28;20016;-77
2022/09/29 08:52:21;;;;;;;4.43;2.15;;;;;;;22.31;45.75;94051.84;5071682;28;20046;-77
2022/09/29 08:54:48;;;;;;;8.65;3.70;;;;;;;22.42;44.98;94060.91;5055567;28;20453;-78
2022/09/29 08:57:20;;;;;;;6.45;3.00;;;;;;;22.42;45.39;94061.72;5038331;28;20062;-77
2022/09/29 08:59:51;;;;;;;4.55;2.50;;;;;;;22.41;45.13;94060.09;5071375;28;20043;-77
2022/09/29 09:02:58;;;;;;;7.35;2.90;;;;;;;22.49;45.45;94072.25;5072800;28;20044;-78
2022/09/29 09:05:34;;;;;;;5.93;2.40;;;;;;;22.50;45.35;94055.34;5054618;28;20083;-77
2022/09/29 09:08:18;;;;;;;7.38;2.63;;;;;;;22.55;44.06;94055.50;5072747;28;20111;-78
2022/09/29 09:11:26;;;;;;;6.47;2.90;;;;;;;22.50;44.36;94055.34;5072302;28;20467;-77
2022/09/29 09:14:16;;;;;;;5.57;2.40;;;;;;;22.51;44.35;94051.66;5058132;28;20044;-77
2022/09/29 09:16:42;;;;;;;8.63;2.50;;;;;;;;;;5071909;28;20048;-77
2022/09/29 09:19:30;;;;;;;6.53;2.55;;;;;;;22.22;44.83;94051.31;5072229;28;20513;-77
2022/09/29 09:22:24;;;;;;;13.48;5.15;;;;;;;22.26;45.52;94052.50;5071032;28;20452;-77
2022/09/29 09:25:19;;;;;;;5.72;2.50;;;;;;;22.43;43.53;94046.66;5071966;28;20032;-78
2022/09/29 09:27:48;;;;;;;5.43;2.25;;;;;;;22.51;42.20;94055.13;5070728;28;20040;-78
2022/09/29 09:30:15;;;;;;;6.03;2.10;;;;;;;22.48;42.80;94057.38;5070802;28;20077;-77
2022/09/29 09:33:10;;;;;;;5.68;1.65;;;;;;;22.55;43.15;94046.75;5037623;28;20052;-78
2022/09/29 09:36:04;;;;;;;7.95;2.22;;;;;;;22.58;44.17;94049.75;5055642;28;20076;-77
2022/09/29 09:38:54;;;;;;;6.25;2.30;;;;;;;22.68;42.41;94044.78;5038302;28;20035;-77
2022/09/29 09:41:21;;;;;;;7.20;2.15;;;;;;;22.69;43.52;94040.28;5070723;28;20063;-78
2022/09/29 09:43:52;;;;;;;6.85;2.63;;;;;;;22.84;43.42;94034.63;5053602;28;20035;-77
2022/09/29 09:46:29;;;;;;;5.72;2.33;;;;;;;22.98;42.65;94044.03;5054247;28;20051;-78
2022/09/29 09:49:02;;;;;;;3.33;1.85;;;;;;;23.14;42.38;94038.16;5070560;28;20032;-77
2022/09/29 09:51:45;;;;;;;6.03;1.73;;;;;;;23.16;40.29;94041.38;5038054;28;20453;-77
2022/09/29 09:54:20;;;;;;;3.95;1.98;;;;;;;23.25;40.42;94028.63;5070398;28;20486;-78
2022/09/29 09:57:05;;;;;;;4.45;1.75;;;;;;;23.33;40.36;94024.88;5054452;28;20059;-78
2022/09/29 09:59:48;;;;;;;5.95;1.83;;;;;;;23.37;40.06;94036.63;5071558;28;20044;-77
2022/09/29 10:02:19;;;;;;;4.25;2.05;;;;;;;23.50;40.62;94035.66;5071873;28;20033;-78
2022/09/29 10:04:46;;;;;;;7.28;1.90;;;;;;;23.51;39.48;94048.66;5053406;28;20414;-77
2022/09/29 10:07:12;;;;;;;3.15;1.70;;;;;;;23.40;37.83;94033.53;5036829;28;20128;-77
2022/09/29 10:09:37;;;;;;;2.97;1.60;;;;;;;23.56;36.52;94040.03;5037078;28;20032;-77
2022/09/29 10:12:03;;;;;;;4.00;1.70;;;;;;;23.32;38.02;94025.91;5036729;28;20090;-77
2022/09/29 10:14:29;;;;;;;6.35;1.95;;;;;;;23.33;38.44;94024.88;5070250;28;20517;-77
2022/09/29 10:16:57;;;;;;;6.75;2.25;;;;;;;23.43;39.30;94041.06;5069783;28;20098;-77
2022/09/29 10:19:43;;;;;;;3.80;1.90;;;;;;;23.45;37.90;94043.47;5071222;28;20024;-77
2022/09/29 10:22:13;;;;;;;3.15;1.88;;;;;;;23.45;36.15;94033.66;5055975;28;20123;-77
2022/09/29 10:24:38;;;;;;;3.53;2.00;;;;;;;23.41;36.57;94028.00;5069806;28;20111;-77
2022/09/29 10:27:03;;;;;;;5.93;2.30;;;;;;;23.35;37.04;94033.41;5069902;28;20066;-78
2022/09/29 10:29:40;;;;;;;3.80;2.30;;;;;;;23.58;37.70;94030.81;5071172;28;20036;-78
2022/09/29 10:32:05;;;;;;;5.30;2.65;;;;;;;23.71;36.63;94026.38;5053344;28;20486;-77
2022/09/29 10:34:32;;;;;;;4.00;2.20;;;;;;;23.78;36.78;94021.81;5071206;28;20146;-77
2022/09/29 10:37:02;;;;;;;4.28;2.20;;;;;;;23.68;37.02;94021.50;5036461;28;20028;-77
2022/09/29 10:39:44;;;;;;;5.10;2.03;;;;;;;23.71;36.42;94031.69;5053108;28;20486;-77
2022/09/29 10:42:32;;;;;;;5.47;2.70;;;;;;;23.77;37.13;94046.72;5053035;28;20123;-77
2022/09/29 10:45:01;;;;;;;4.82;2.72;;;;;;;23.68;38.00;94053.31;5069621;28;20032;-77
2022/09/29 10:47:27;;;;;;;5.00;2.70;;;;;;;23.53;37.98;94037.84;5069777;28;20033;-77
2022/09/29 10:50:13;;;;;;;6.68;2.20;;;;;;;23.47;37.21;94044.84;5072403;28;20047;-77
2022/09/29 10:52:41;;;;;;;7.28;2.70;;;;;;;23.45;37.98;94043.47;5057362;28;20032;-77
2022/09/29 10:55:31;;;;;;;3.78;2.67;;;;;;;23.52;37.75;94026.44;5057131;28;20031;-77
2022/09/29 10:57:58;;;;;;;5.97;3.10;;;;;;;23.63;37.70;94020.38;5059637;28;20041;-77
2022/09/29 11:00:25;;;;;;;4.50;2.85;;;;;;;23.48;37.36;94019.16;5073454;28;20294;-77
2022/09/29 11:02:50;;;;;;;5.07;2.90;;;;;;;23.40;37.87;94021.09;5073449;28;20031;-77
2022/09/29 11:05:18;;;;;;;8.80;2.90;;;;;;;23.38;36.98;94017.06;5073458;28;20029;-78
2022/09/29 11:07:47;;;;;;;4.80;2.92;;;;;;;23.43;37.77;94009.25;5057097;28;20036;-77
2022/09/29 11:10:35;;;;;;;5.78;2.58;;;;;;;23.44;37.77;94016.16;5040501;28;20032;-77
2022/09/29 11:13:39;;;;;;;3.83;2.20;;;;;;;23.34;36.99;94015.88;5057494;28;20036;-77
2022/09/29 11:16:22;;;;;;;3.33;2.13;;;;;;;23.29;37.37;94013.94;5042383;28;20500;-77
2022/09/29 11:18:49;;;;;;;10.95;2.78;;;;;;;23.27;37.60;94008.03;5056407;28;20052;-77
2022/09/29 11:21:20;;;;;;;3.15;2.20;;;;;;;23.25;36.63;94014.59;5056429;28;20037;-78
2022/09/29 11:24:05;;;;;;;3.85;2.70;;;;;;;23.08;37.70;93998.50;5074328;28;20024;-77
2022/09/29 11:27:12;;;;;;;4.30;2.35;;;;;;;23.08;37.12;94012.56;5073099;28;20102;-77
2022/09/29 11:29:55;;;;;;;3.97;2.42;;;;;;;23.05;37.04;93997.13;5073799;28;20040;-78
2022/09/29 11:32:23;;;;;;;4.63;2.47;;;;;;;22.96;37.29;94004.56;5074441;28;20070;-78
2022/09/29 11:34:55;;;;;;;4.40;2.85;;;;;;;22.98;37.40;93999.03;5072756;28;20024;-77
2022/09/29 11:37:33;;;;;;;5.72;2.53;;;;;;;23.03;37.97;94004.47;5056123;28;20410;-77
2022/09/29 11:40:23;;;;;;;2.92;2.10;;;;;;;23.02;38.35;94008.16;5072613;28;20495;-77
2022/09/29 11:43:19;;;;;;;4.35;2.22;;;;;;;22.95;39.33;93992.34;5072662;28;20522;-78
2022/09/29 11:46:11;;;;;;;5.18;2.83;;;;;;;23.05;38.87;94002.41;5057933;28;20155;-77
2022/09/29 11:48:55;;;;;;;4.35;1.90;;;;;;;23.04;38.58;93995.50;5069023;28;20047;-77
2022/09/29 11:51:33;;;;;;;4.28;2.63;;;;;;;23.08;38.64;93988.72;5072806;28;20060;-77
2022/09/29 11:54:22;;;;;;;9.48;6.30;;;;;;;23.09;38.43;94008.88;5072661;28;20021;-77